Time;durP1;ratioP1;P1;durP2;ratioP2;P2;SDS_P1;SDS_P2;PMS_P1;PMS_P2;Temp;Humidity;BMP_temperature;BMP_pressure;BME280_temperature;BME280_humidity;BME280_pressure;Samples;Min_cycle;Max_cycle;Signal;HPM_P1;HPM_P2
2022/01/20 00:02:37;;;;;;;14.23;3.73;;;5.50;99.90;;;;;;5062374;28;20198;-75
2022/01/20 00:05:12;;;;;;;15.93;4.30;;;5.50;99.90;;;;;;5055338;28;20215;-74
2022/01/20 00:07:58;;;;;;;21.10;5.00;;;5.50;99.90;;;;;;5087450;28;20200;-74
2022/01/20 00:27:03;;;;;;;17.40;4.90;;;5.40;99.90;;;;;;5062022;28;20198;-74
2022/01/20 00:29:46;;;;;;;17.13;5.57;;;5.30;99.90;;;;;;5079494;28;20196;-74
2022/01/20 00:32:14;;;;;;;20.87;5.23;;;5.20;99.90;;;;;;5067105;28;20657;-74
2022/01/20 00:37:30;;;;;;;22.63;6.57;;;5.20;99.90;;;;;;5034993;28;20211;-74
2022/01/20 00:39:58;;;;;;;22.90;5.80;;;5.30;99.90;;;;;;5062795;28;20202;-74
2022/01/20 00:42:34;;;;;;;23.60;5.63;;;5.20;99.90;;;;;;5067616;28;20199;-74
2022/01/20 00:45:03;;;;;;;24.57;6.77;;;5.30;99.90;;;;;;5079932;28;20218;-74
2022/01/20 00:47:30;;;;;;;18.70;5.10;;;5.40;99.90;;;;;;5064381;28;20191;-74
2022/01/20 00:49:58;;;;;;;21.33;5.50;;;5.40;99.90;;;;;;5059020;28;20202;-74
2022/01/20 00:52:25;;;;;;;16.20;4.90;;;5.50;99.90;;;;;;5065030;28;20200;-74
2022/01/20 00:54:52;;;;;;;14.73;4.80;;;5.50;99.90;;;;;;5063738;28;20219;-74
2022/01/20 00:57:21;;;;;;;18.70;5.80;;;5.50;99.90;;;;;;5074132;28;20220;-74
2022/01/20 00:59:49;;;;;;;19.53;5.83;;;5.40;99.90;;;;;;5076799;28;20207;-74
2022/01/20 01:02:17;;;;;;;15.67;5.50;;;5.40;99.90;;;;;;5079500;28;20203;-74
2022/01/20 01:04:45;;;;;;;20.70;5.10;;;5.40;99.90;;;;;;5083237;28;20218;-75
2022/01/20 01:09:56;;;;;;;18.87;5.90;;;5.50;99.90;;;;;;5066092;28;20203;-75
2022/01/20 01:12:37;;;;;;;26.43;5.03;;;5.50;99.90;;;;;;5069452;28;20211;-74
2022/01/20 01:15:10;;;;;;;16.67;5.27;;;5.50;99.90;;;;;;5068480;28;20210;-75
2022/01/20 01:20:26;;;;;;;18.70;5.67;;;5.60;99.90;;;;;;5067869;28;20200;-74
2022/01/20 01:22:54;;;;;;;20.40;5.50;;;5.60;99.90;;;;;;5069666;28;20271;-75
2022/01/20 01:25:21;;;;;;;18.00;5.07;;;5.50;99.90;;;;;;5069370;28;20204;-74
2022/01/20 01:27:49;;;;;;;20.63;4.93;;;5.60;99.90;;;;;;5064143;28;20185;-77
2022/01/20 01:33:11;;;;;;;17.53;5.47;;;5.60;99.90;;;;;;5017517;28;20719;-74
2022/01/20 01:35:41;;;;;;;16.27;4.53;;;5.50;99.90;;;;;;5070276;28;20211;-74
2022/01/20 01:38:25;;;;;;;17.27;5.00;;;5.50;99.90;;;;;;5070298;28;20218;-74
2022/01/20 01:40:53;;;;;;;19.17;4.53;;;5.50;99.90;;;;;;5074286;28;20204;-74
2022/01/20 01:43:26;;;;;;;17.87;4.73;;;5.50;99.90;;;;;;5069713;28;20221;-74
2022/01/20 01:45:53;;;;;;;18.60;5.70;;;5.40;99.90;;;;;;5083759;28;20222;-74
2022/01/20 01:48:22;;;;;;;22.87;4.97;;;5.40;99.90;;;;;;5064268;28;20572;-74
2022/01/20 01:50:50;;;;;;;18.70;4.93;;;5.40;99.90;;;;;;5066437;28;20673;-74
2022/01/20 01:53:19;;;;;;;24.27;5.07;;;5.40;99.90;;;;;;5065805;28;20219;-74
2022/01/20 01:56:05;;;;;;;25.03;6.10;;;5.40;99.90;;;;;;5084737;28;20203;-74
2022/01/20 01:58:33;;;;;;;20.57;5.30;;;5.30;99.90;;;;;;5079537;28;20218;-74
2022/01/20 02:01:25;;;;;;;19.00;5.80;;;5.30;99.90;;;;;;5057668;28;20210;-74
2022/01/20 02:04:00;;;;;;;22.53;5.80;;;5.30;99.90;;;;;;5080858;28;20218;-74
2022/01/20 02:06:55;;;;;;;19.73;5.00;;;5.30;99.90;;;;;;5082575;28;20203;-75
2022/01/20 02:17:49;;;;;;;18.57;4.80;;;5.30;99.90;;;;;;5082540;28;20204;-74
2022/01/20 02:18:24;;;;;;;14.27;4.10;;;5.20;99.90;;;;;;5070463;28;20218;-74
2022/01/20 02:20:53;;;;;;;17.77;4.60;;;5.20;99.90;;;;;;5069479;28;20209;-74
2022/01/20 02:23:38;;;;;;;17.30;5.17;;;5.10;99.90;;;;;;5068567;28;20213;-74
2022/01/20 02:26:07;;;;;;;17.10;4.27;;;5.20;99.90;;;;;;5062850;28;20201;-74
2022/01/20 02:28:34;;;;;;;17.10;4.57;;;5.20;99.90;;;;;;5078099;28;20197;-74
2022/01/20 02:31:03;;;;;;;12.83;4.50;;;5.20;99.90;;;;;;5057546;28;20738;-74
2022/01/20 02:33:31;;;;;;;14.93;4.10;;;5.20;99.90;;;;;;5063524;28;20232;-74
2022/01/20 02:36:03;;;;;;;16.10;4.70;;;5.20;99.90;;;;;;5078278;28;20203;-74
2022/01/20 02:38:36;;;;;;;19.60;4.00;;;5.20;99.90;;;;;;5081407;28;20206;-74
2022/01/20 02:46:37;;;;;;;16.70;3.33;;;5.20;99.90;;;;;;5079861;28;20194;-74
2022/01/20 02:49:04;;;;;;;17.67;4.17;;;5.20;99.90;;;;;;5063452;28;20187;-74
2022/01/20 02:51:33;;;;;;;14.67;3.97;;;5.20;99.90;;;;;;5069115;28;20199;-74
2022/01/20 02:54:03;;;;;;;20.03;4.63;;;5.20;99.90;;;;;;5067205;28;20222;-74
2022/01/20 02:56:30;;;;;;;16.67;3.67;;;5.20;99.90;;;;;;5063034;28;20540;-75
2022/01/20 02:58:58;;;;;;;11.57;3.30;;;5.30;99.90;;;;;;5063387;28;20588;-74
2022/01/20 03:01:25;;;;;;;15.83;3.87;;;5.20;99.90;;;;;;5081113;28;20661;-74
2022/01/20 03:03:52;;;;;;;13.23;3.47;;;5.20;99.90;;;;;;5060095;28;20575;-75
2022/01/20 03:06:21;;;;;;;11.13;3.30;;;5.20;99.90;;;;;;5061937;28;20202;-74
2022/01/20 03:08:50;;;;;;;17.43;3.97;;;5.20;99.90;;;;;;5067135;28;20206;-74
2022/01/20 03:11:18;;;;;;;13.63;3.30;;;5.20;99.90;;;;;;5065257;28;20199;-74
2022/01/20 03:13:45;;;;;;;15.10;3.70;;;5.10;99.90;;;;;;5080252;28;20232;-74
2022/01/20 03:16:12;;;;;;;13.10;3.50;;;5.10;99.90;;;;;;5074816;28;20205;-74
2022/01/20 03:18:40;;;;;;;16.20;4.30;;;5.10;99.90;;;;;;5081232;28;20207;-74
2022/01/20 03:21:07;;;;;;;13.03;3.50;;;5.10;99.90;;;;;;5066802;28;20277;-74
2022/01/20 03:23:34;;;;;;;10.47;3.43;;;5.20;99.90;;;;;;5065397;28;20214;-74
2022/01/20 03:26:05;;;;;;;16.10;3.40;;;5.20;99.90;;;;;;5066194;28;20227;-74
2022/01/20 03:28:33;;;;;;;11.07;3.77;;;5.20;99.90;;;;;;5059076;28;20187;-74
2022/01/20 03:31:01;;;;;;;10.10;3.40;;;5.20;99.90;;;;;;5075188;28;20204;-74
2022/01/20 03:33:28;;;;;;;12.33;3.23;;;5.20;99.90;;;;;;5065840;28;20218;-76
2022/01/20 03:35:55;;;;;;;15.63;3.67;;;5.10;99.90;;;;;;5080955;28;20209;-74
2022/01/20 03:38:53;;;;;;;14.93;3.17;;;5.10;99.90;;;;;;5049685;28;20219;-74
2022/01/20 03:41:23;;;;;;;16.20;3.53;;;5.10;99.90;;;;;;5082738;28;20201;-75
2022/01/20 03:43:54;;;;;;;11.87;3.03;;;5.10;99.90;;;;;;5068295;28;20218;-74
2022/01/20 03:46:22;;;;;;;18.47;4.40;;;5.10;99.90;;;;;;5075320;28;20258;-74
2022/01/20 03:48:52;;;;;;;11.90;3.67;;;5.00;99.90;;;;;;5060682;28;20684;-74
2022/01/20 03:51:23;;;;;;;14.97;4.00;;;5.10;99.90;;;;;;5082945;28;20202;-74
2022/01/20 03:53:55;;;;;;;12.23;2.93;;;5.00;99.90;;;;;;5078596;28;20217;-74
2022/01/20 03:56:31;;;;;;;9.43;3.13;;;5.00;99.90;;;;;;5065636;28;20669;-74
2022/01/20 03:59:18;;;;;;;9.53;2.97;;;5.10;99.90;;;;;;5056506;28;20685;-74
2022/01/20 04:01:46;;;;;;;11.80;3.10;;;5.00;99.90;;;;;;5084647;28;20214;-74
2022/01/20 04:04:56;;;;;;;13.47;3.10;;;5.10;99.90;;;;;;5065403;28;20212;-74
2022/01/20 04:07:30;;;;;;;12.37;2.80;;;5.10;99.90;;;;;;5077419;28;20196;-74
2022/01/20 04:09:57;;;;;;;12.17;3.63;;;5.10;99.90;;;;;;5083361;28;20191;-74
2022/01/20 04:12:26;;;;;;;13.27;3.47;;;5.10;99.90;;;;;;5064211;28;20274;-74
2022/01/20 04:14:53;;;;;;;15.37;3.77;;;5.10;99.90;;;;;;5066723;28;20223;-75
2022/01/20 04:17:26;;;;;;;10.30;3.33;;;5.00;99.90;;;;;;5081125;28;20197;-74
2022/01/20 04:19:53;;;;;;;16.53;4.33;;;5.00;99.90;;;;;;5063529;28;20234;-73
2022/01/20 04:22:23;;;;;;;17.30;3.73;;;4.90;99.90;;;;;;5066066;28;20702;-74
2022/01/20 04:24:57;;;;;;;10.73;3.10;;;4.90;99.90;;;;;;5087165;28;20225;-74
2022/01/20 04:27:26;;;;;;;14.10;3.10;;;4.90;99.90;;;;;;5076950;28;20194;-73
2022/01/20 04:29:53;;;;;;;18.53;3.73;;;4.90;99.90;;;;;;5071675;28;20652;-73
2022/01/20 04:32:21;;;;;;;15.50;3.90;;;4.90;99.90;;;;;;5070757;28;20202;-73
2022/01/20 04:34:48;;;;;;;17.33;3.70;;;4.90;99.90;;;;;;5073358;28;20215;-73
2022/01/20 04:37:15;;;;;;;10.37;2.70;;;4.80;99.90;;;;;;5055853;22;20232;-78
2022/01/20 04:39:47;;;;;;;9.10;2.43;;;4.80;99.90;;;;;;4976465;28;20209;-78
2022/01/20 04:42:18;;;;;;;11.63;2.60;;;4.80;99.90;;;;;;4989603;28;20217;-78
2022/01/20 04:44:52;;;;;;;11.57;2.70;;;4.80;99.90;;;;;;4992968;28;20215;-78
2022/01/20 04:47:33;;;;;;;9.43;2.40;;;4.90;99.90;;;;;;4989487;28;20248;-78
2022/01/20 04:58:15;;;;;;;9.83;2.80;;;4.90;99.90;;;;;;4969249;28;20211;-78
2022/01/20 05:00:53;;;;;;;12.50;2.83;;;4.80;99.90;;;;;;4971578;28;20210;-78
2022/01/20 05:03:45;;;;;;;9.90;2.63;;;4.80;99.90;;;;;;4945586;28;20220;-77
2022/01/20 05:06:27;;;;;;;9.10;2.17;;;4.80;99.90;;;;;;4965704;28;20699;-78
2022/01/20 05:08:55;;;;;;;11.60;3.27;;;4.90;99.90;;;;;;4988925;28;20199;-78
2022/01/20 05:11:43;;;;;;;9.43;3.57;;;4.80;99.90;;;;;;4987358;28;20198;-78
2022/01/20 05:14:11;;;;;;;8.60;3.77;;;4.70;99.90;;;;;;4955111;29;20589;-77
2022/01/20 05:16:43;;;;;;;8.77;3.13;;;4.70;99.90;;;;;;4987534;28;20310;-77
2022/01/20 05:19:18;;;;;;;15.77;3.67;;;4.70;99.90;;;;;;4955686;28;20568;-77
2022/01/20 05:21:45;;;;;;;12.13;3.13;;;4.70;99.90;;;;;;4972457;28;20206;-77
2022/01/20 05:24:22;;;;;;;13.00;3.67;;;4.70;99.90;;;;;;4976729;28;20202;-77
2022/01/20 05:26:51;;;;;;;6.67;3.00;;;4.60;99.90;;;;;;4971996;28;20224;-77
2022/01/20 05:29:18;;;;;;;10.70;3.20;;;4.60;99.90;;;;;;4961969;28;20546;-77
2022/01/20 05:31:47;;;;;;;7.40;2.93;;;4.60;99.90;;;;;;4965633;28;20210;-77
2022/01/20 05:34:16;;;;;;;12.70;3.60;;;4.70;99.90;;;;;;4971652;28;20229;-78
2022/01/20 05:36:44;;;;;;;9.87;3.57;;;4.70;99.90;;;;;;5004114;28;20550;-78
2022/01/20 05:39:26;;;;;;;7.63;3.00;;;4.70;99.90;;;;;;4990178;28;20223;-77
2022/01/20 05:41:53;;;;;;;9.60;2.57;;;4.60;99.90;;;;;;4979115;28;20212;-77
2022/01/20 05:44:41;;;;;;;9.27;2.43;;;4.60;99.90;;;;;;4971177;28;20194;-77
2022/01/20 05:47:11;;;;;;;9.20;2.47;;;4.50;99.90;;;;;;4954068;28;20593;-77
2022/01/20 05:50:12;;;;;;;10.37;2.33;;;4.50;99.90;;;;;;4955074;28;20204;-78
2022/01/20 05:52:41;;;;;;;6.33;1.80;;;4.50;99.90;;;;;;4987157;28;20233;-77
2022/01/20 05:55:11;;;;;;;3.77;2.10;;;4.50;99.90;;;;;;4971207;28;20202;-78
2022/01/20 05:57:40;;;;;;;7.17;1.80;;;4.50;99.90;;;;;;4953948;28;20222;-78
2022/01/20 06:00:11;;;;;;;7.27;1.80;;;4.50;99.90;;;;;;4974601;28;20225;-78
2022/01/20 06:05:41;;;;;;;6.90;1.83;;;4.60;99.90;;;;;;4970520;28;20206;-78
2022/01/20 06:08:12;;;;;;;6.27;1.70;;;4.60;99.90;;;;;;4970660;28;20225;-78
2022/01/20 06:10:40;;;;;;;10.00;1.77;;;4.60;99.90;;;;;;4987001;28;20197;-78
2022/01/20 06:13:33;;;;;;;7.87;2.27;;;4.50;99.90;;;;;;4956489;28;20213;-78
2022/01/20 06:16:01;;;;;;;8.30;2.03;;;4.50;99.90;;;;;;4970332;28;20205;-78
2022/01/20 06:18:41;;;;;;;4.77;1.77;;;4.50;99.90;;;;;;4970601;28;20201;-78
2022/01/20 06:21:09;;;;;;;6.60;1.93;;;4.50;99.90;;;;;;4986182;28;20214;-78
2022/01/20 06:23:37;;;;;;;8.93;2.10;;;4.40;99.90;;;;;;4970230;28;20220;-78
2022/01/20 06:26:05;;;;;;;9.43;2.33;;;4.50;99.90;;;;;;4980692;28;20217;-78
2022/01/20 06:28:34;;;;;;;6.87;1.77;;;4.50;99.90;;;;;;4986212;28;20206;-78
2022/01/20 06:31:03;;;;;;;10.20;2.33;;;4.50;99.90;;;;;;4983810;28;20196;-78
2022/01/20 06:33:30;;;;;;;8.00;2.10;;;4.50;99.90;;;;;;4971838;28;20686;-78
2022/01/20 06:36:00;;;;;;;8.47;2.67;;;4.50;99.90;;;;;;4997332;28;20208;-78
2022/01/20 06:38:39;;;;;;;10.00;2.67;;;4.50;99.90;;;;;;4998727;28;20214;-78
2022/01/20 06:41:07;;;;;;;10.10;2.00;;;4.50;99.90;;;;;;4952405;29;20208;-78
2022/01/20 06:43:36;;;;;;;5.90;2.00;;;4.40;99.90;;;;;;4981783;28;20190;-78
2022/01/20 06:46:05;;;;;;;9.17;2.07;;;4.50;99.90;;;;;;4985451;28;20206;-78
2022/01/20 06:49:01;;;;;;;12.10;2.47;;;4.40;99.90;;;;;;4978753;28;20201;-78
2022/01/20 06:51:30;;;;;;;7.87;1.93;;;4.40;99.90;;;;;;4965072;28;20196;-78
2022/01/20 06:54:01;;;;;;;11.50;3.50;;;4.50;99.90;;;;;;4989205;28;20212;-78
2022/01/20 06:56:29;;;;;;;8.93;2.47;;;4.40;99.90;;;;;;4975804;28;20245;-78
2022/01/20 06:58:56;;;;;;;10.10;2.33;;;4.40;99.90;;;;;;4984686;28;20202;-78
2022/01/20 07:01:23;;;;;;;8.03;2.13;;;4.40;99.90;;;;;;4991310;28;20583;-78
2022/01/20 07:03:53;;;;;;;8.53;2.67;;;4.50;99.90;;;;;;4992131;28;20205;-78
2022/01/20 07:06:23;;;;;;;7.57;2.17;;;4.50;99.90;;;;;;4964778;28;20226;-78
2022/01/20 07:09:14;;;;;;;9.97;3.23;;;4.40;99.90;;;;;;4956804;28;20205;-79
2022/01/20 07:11:43;;;;;;;12.63;2.77;;;4.50;99.90;;;;;;4979651;28;20216;-79
2022/01/20 07:14:11;;;;;;;12.80;2.97;;;4.50;99.90;;;;;;4968683;28;20214;-79
2022/01/20 07:16:39;;;;;;;11.00;2.63;;;4.50;99.90;;;;;;4986493;28;20224;-79
2022/01/20 07:19:06;;;;;;;10.47;2.33;;;4.40;99.90;;;;;;4971289;28;20198;-79
2022/01/20 07:21:34;;;;;;;8.90;2.40;;;4.50;99.90;;;;;;4948783;28;20224;-76
2022/01/20 07:24:04;;;;;;;9.27;2.57;;;4.50;99.90;;;;;;4982539;28;20675;-76
2022/01/20 07:26:33;;;;;;;11.43;2.77;;;4.50;99.90;;;;;;4986940;28;20221;-76
2022/01/20 07:29:08;;;;;;;7.07;1.50;;;4.50;99.90;;;;;;4944126;29;20220;-76
2022/01/20 07:31:41;;;;;;;8.47;2.10;;;4.50;99.90;;;;;;4984242;28;20679;-76
2022/01/20 07:34:11;;;;;;;9.03;2.37;;;4.40;99.90;;;;;;4961652;28;20203;-75
2022/01/20 07:36:38;;;;;;;16.23;2.90;;;4.40;99.90;;;;;;4967864;28;20326;-76
2022/01/20 07:39:06;;;;;;;11.83;2.77;;;4.40;99.90;;;;;;4967378;28;20205;-76
2022/01/20 07:41:35;;;;;;;12.50;3.30;;;4.40;99.90;;;;;;4967400;28;20214;-76
2022/01/20 07:44:09;;;;;;;8.00;2.33;;;4.40;99.90;;;;;;4966192;28;20206;-76
2022/01/20 07:47:06;;;;;;;9.73;2.13;;;4.40;99.90;;;;;;4958527;28;20230;-76
2022/01/20 07:49:38;;;;;;;9.47;2.40;;;4.40;99.90;;;;;;4983125;28;20702;-76
2022/01/20 07:52:06;;;;;;;8.17;2.13;;;4.30;99.90;;;;;;4952622;28;20195;-76
2022/01/20 07:54:34;;;;;;;9.13;2.43;;;4.30;99.90;;;;;;4966118;28;20217;-76
2022/01/20 07:57:04;;;;;;;8.37;2.17;;;4.30;99.90;;;;;;4968181;28;20232;-76
2022/01/20 07:59:31;;;;;;;11.90;2.83;;;4.30;99.90;;;;;;4981628;28;20203;-76
2022/01/20 08:01:59;;;;;;;8.77;2.20;;;4.20;99.90;;;;;;4963757;28;20240;-75
2022/01/20 08:04:26;;;;;;;13.80;3.03;;;4.20;99.90;;;;;;4998856;28;20211;-75
2022/01/20 08:06:57;;;;;;;11.60;2.60;;;4.20;99.90;;;;;;4985291;28;20220;-75
2022/01/20 08:09:25;;;;;;;12.33;2.50;;;4.20;99.90;;;;;;4968231;28;20210;-78
2022/01/20 08:12:08;;;;;;;9.83;2.27;;;4.30;99.90;;;;;;4995940;28;20195;-78
2022/01/20 08:14:48;;;;;;;11.60;2.80;;;4.30;99.90;;;;;;4994916;28;20212;-80
2022/01/20 08:17:23;;;;;;;6.83;2.70;;;4.30;99.90;;;;;;4956016;28;20220;-78
2022/01/20 08:19:54;;;;;;;7.67;2.40;;;4.40;99.90;;;;;;4984867;28;20198;-77
2022/01/20 08:22:21;;;;;;;10.50;2.73;;;4.40;99.90;;;;;;4965471;28;20214;-76
2022/01/20 08:24:52;;;;;;;7.93;2.63;;;4.40;99.90;;;;;;4946628;28;20211;-76
2022/01/20 08:27:21;;;;;;;6.73;2.30;;;4.50;99.90;;;;;;4978258;28;20221;-76
2022/01/20 08:37:22;;;;;;;9.97;2.27;;;4.60;99.90;;;;;;4976096;28;20284;-76
2022/01/20 08:39:49;;;;;;;10.20;2.70;;;4.60;99.90;;;;;;4977434;28;20202;-76
2022/01/20 08:42:19;;;;;;;7.87;3.43;;;4.50;99.90;;;;;;4986744;28;20213;-76
2022/01/20 08:44:47;;;;;;;10.90;2.70;;;4.40;99.90;;;;;;4979150;28;20574;-76
2022/01/20 08:47:17;;;;;;;9.07;1.90;;;4.40;99.90;;;;;;4988083;28;20305;-76
2022/01/20 08:49:46;;;;;;;7.83;1.70;;;4.30;99.90;;;;;;4988393;28;20204;-76
2022/01/20 08:52:13;;;;;;;7.53;1.77;;;4.30;99.90;;;;;;4988152;28;20204;-76
2022/01/20 08:54:47;;;;;;;7.37;2.70;;;4.30;99.90;;;;;;4985970;28;20566;-76
2022/01/20 08:57:34;;;;;;;7.70;1.93;;;4.30;99.90;;;;;;4992645;28;20240;-76
2022/01/20 09:00:01;;;;;;;7.37;2.20;;;4.30;99.90;;;;;;4991985;28;20212;-76
2022/01/20 09:02:30;;;;;;;7.00;1.90;;;4.40;99.90;;;;;;4984905;28;20229;-76
2022/01/20 09:04:58;;;;;;;7.23;1.93;;;4.30;99.90;;;;;;4960995;28;20207;-76
2022/01/20 09:07:42;;;;;;;7.40;1.77;;;4.20;99.90;;;;;;4984945;28;20225;-76
2022/01/20 09:10:18;;;;;;;8.57;2.23;;;4.00;99.90;;;;;;4988520;28;20196;-76
2022/01/20 09:15:32;;;;;;;8.83;2.30;;;3.80;99.90;;;;;;4966796;28;20236;-76
2022/01/20 09:18:11;;;;;;;11.20;2.27;;;3.90;99.90;;;;;;4966183;28;20720;-75
2022/01/20 09:20:48;;;;;;;11.90;2.23;;;4.00;99.90;;;;;;4950919;28;20209;-76
2022/01/20 09:23:16;;;;;;;10.03;2.37;;;4.20;99.90;;;;;;4955634;28;20210;-76
2022/01/20 09:25:44;;;;;;;6.90;2.27;;;4.10;99.90;;;;;;4961103;28;20659;-76
2022/01/20 09:28:13;;;;;;;7.83;2.03;;;4.20;99.90;;;;;;4988743;28;20216;-76
2022/01/20 09:30:41;;;;;;;9.17;2.70;;;4.30;99.90;;;;;;4989929;28;20211;-77
2022/01/20 09:33:15;;;;;;;11.33;2.73;;;4.40;99.90;;;;;;4982271;28;20215;-76
2022/01/20 09:35:45;;;;;;;8.93;2.10;;;4.30;99.90;;;;;;4970703;28;20560;-76
2022/01/20 09:38:13;;;;;;;13.00;2.40;;;4.30;99.90;;;;;;4953633;28;20230;-76
2022/01/20 09:40:42;;;;;;;7.70;1.90;;;4.50;99.90;;;;;;4972934;28;20210;-76
2022/01/20 09:43:12;;;;;;;8.60;2.37;;;4.40;99.90;;;;;;4989566;28;20221;-77
2022/01/20 09:45:41;;;;;;;9.63;2.43;;;4.40;99.90;;;;;;4988281;28;20202;-76
2022/01/20 09:48:17;;;;;;;14.07;2.23;;;4.40;99.90;;;;;;4985848;28;20234;-76
2022/01/20 09:51:03;;;;;;;5.97;2.00;;;4.50;99.90;;;;;;4961225;28;20196;-76
2022/01/20 09:53:39;;;;;;;11.07;2.50;;;4.40;99.90;;;;;;4960878;28;20198;-76
2022/01/20 09:56:23;;;;;;;11.23;2.03;;;4.40;99.90;;;;;;4980070;28;20215;-76
2022/01/20 09:58:56;;;;;;;12.57;2.37;;;4.40;99.90;;;;;;4982915;28;20194;-76
2022/01/20 10:01:45;;;;;;;7.53;2.10;;;4.40;99.90;;;;;;4985621;28;20230;-76
2022/01/20 10:04:47;;;;;;;11.67;2.57;;;4.40;99.90;;;;;;4954219;28;20231;-76
2022/01/20 10:07:23;;;;;;;10.87;2.10;;;4.40;99.90;;;;;;4969110;28;20229;-75
2022/01/20 10:09:58;;;;;;;12.70;2.70;;;4.50;99.90;;;;;;4982262;28;20209;-75
2022/01/20 10:12:51;;;;;;;10.07;2.63;;;4.50;99.90;;;;;;4964106;28;20208;-76
2022/01/20 10:15:38;;;;;;;6.97;1.93;;;4.50;99.90;;;;;;4982376;28;20204;-76
2022/01/20 10:18:47;;;;;;;8.47;2.40;;;4.50;99.90;;;;;;4964550;28;20212;-76
2022/01/20 10:21:15;;;;;;;9.27;2.47;;;4.50;99.90;;;;;;4976746;28;20210;-78
2022/01/20 10:24:05;;;;;;;7.83;2.07;;;4.60;99.90;;;;;;4981302;28;20574;-76
2022/01/20 10:26:42;;;;;;;10.70;2.67;;;4.60;99.90;;;;;;4987143;28;20217;-76
2022/01/20 10:29:12;;;;;;;10.40;2.90;;;4.50;99.90;;;;;;4971977;28;20209;-76
2022/01/20 10:31:44;;;;;;;10.70;2.27;;;4.60;99.90;;;;;;4991999;28;20206;-76
2022/01/20 10:34:28;;;;;;;9.57;2.57;;;4.60;99.90;;;;;;4970974;28;20214;-78
2022/01/20 10:36:59;;;;;;;5.77;2.30;;;4.60;99.90;;;;;;4988890;28;20223;-78
2022/01/20 10:39:42;;;;;;;5.67;2.33;;;4.50;99.90;;;;;;4994991;28;20208;-76
2022/01/20 10:42:16;;;;;;;11.43;2.57;;;4.50;99.90;;;;;;4953218;28;20210;-76
2022/01/20 10:44:47;;;;;;;10.07;2.03;;;4.60;99.90;;;;;;4968236;28;20219;-77
2022/01/20 10:47:18;;;;;;;10.30;2.80;;;4.50;99.90;;;;;;4963892;28;20216;-77
2022/01/20 10:49:48;;;;;;;7.30;2.10;;;4.60;99.90;;;;;;4970720;28;20216;-77
2022/01/20 10:52:19;;;;;;;10.37;2.30;;;4.50;99.90;;;;;;4963727;28;20205;-77
2022/01/20 10:54:48;;;;;;;10.20;2.10;;;4.50;99.90;;;;;;4963230;28;20209;-77
2022/01/20 10:57:29;;;;;;;8.47;2.37;;;4.60;99.90;;;;;;4996711;28;20218;-76
2022/01/20 10:59:59;;;;;;;6.40;2.63;;;4.90;99.90;;;;;;4970960;28;20217;-77
2022/01/20 11:02:36;;;;;;;9.77;2.97;;;5.10;99.90;;;;;;4981303;28;20218;-77
2022/01/20 11:05:06;;;;;;;6.47;2.20;;;5.00;99.90;;;;;;4955804;28;20553;-77
2022/01/20 11:07:37;;;;;;;6.10;2.27;;;4.80;99.90;;;;;;4996458;28;20221;-76
2022/01/20 11:10:07;;;;;;;9.83;3.13;;;4.80;99.90;;;;;;4986484;28;20208;-76
2022/01/20 11:12:47;;;;;;;8.30;2.17;;;4.80;99.90;;;;;;4963704;28;20251;-77
2022/01/20 11:15:29;;;;;;;10.07;2.00;;;4.90;99.90;;;;;;4976982;28;20196;-77
2022/01/20 11:17:58;;;;;;;8.13;2.37;;;4.80;99.90;;;;;;4989703;28;20224;-76
2022/01/20 11:20:32;;;;;;;12.57;2.57;;;5.00;99.90;;;;;;4984054;28;20666;-77
2022/01/20 11:23:03;;;;;;;7.73;2.53;;;5.00;99.90;;;;;;4972386;28;20599;-77
2022/01/20 11:25:36;;;;;;;9.90;3.23;;;5.00;99.90;;;;;;4987971;28;20212;-76
2022/01/20 11:28:22;;;;;;;14.63;2.93;;;5.10;99.90;;;;;;4969623;28;20682;-76
2022/01/20 11:31:30;;;;;;;9.00;3.33;;;5.00;99.90;;;;;;4970430;28;20203;-76
2022/01/20 11:34:17;;;;;;;8.90;2.50;;;5.00;99.90;;;;;;4990798;28;20202;-77
2022/01/20 11:36:45;;;;;;;9.43;2.30;;;5.00;99.90;;;;;;4979797;23;20226;-75
2022/01/20 11:40:01;;;;;;;10.13;2.40;;;5.10;99.90;;;;;;4996929;28;20214;-75
2022/01/20 11:42:29;;;;;;;6.20;2.07;;;5.20;99.90;;;;;;4987901;28;20224;-75
2022/01/20 11:44:56;;;;;;;5.13;2.47;;;5.10;99.90;;;;;;5006271;28;20672;-75
2022/01/20 11:47:57;;;;;;;8.97;2.73;;;5.10;99.90;;;;;;4992030;28;20212;-75
2022/01/20 11:50:25;;;;;;;9.47;2.30;;;5.10;99.90;;;;;;4993688;28;20192;-75
2022/01/20 11:52:56;;;;;;;10.57;2.40;;;5.10;99.90;;;;;;5010868;28;20201;-76
2022/01/20 11:55:25;;;;;;;5.23;1.93;;;5.00;99.90;;;;;;4996816;28;20204;-75
2022/01/20 11:57:52;;;;;;;12.50;2.60;;;4.90;99.90;;;;;;4994514;28;20236;-75
2022/01/20 12:00:28;;;;;;;10.23;2.37;;;4.90;99.90;;;;;;4988964;28;20202;-75
2022/01/20 12:02:56;;;;;;;9.47;2.30;;;4.90;99.90;;;;;;4976689;28;20235;-75
2022/01/20 12:05:37;;;;;;;7.00;2.03;;;5.00;99.90;;;;;;5024499;28;20195;-75
2022/01/20 12:08:30;;;;;;;9.80;2.67;;;5.00;99.90;;;;;;5012903;28;20193;-75
2022/01/20 12:11:19;;;;;;;6.93;2.00;;;5.00;99.90;;;;;;4990299;28;20199;-75
2022/01/20 12:13:50;;;;;;;9.37;2.67;;;5.00;99.90;;;;;;5017056;28;20203;-75
2022/01/20 12:16:20;;;;;;;6.47;2.43;;;4.90;99.90;;;;;;4991998;28;20208;-75
2022/01/20 12:18:51;;;;;;;9.03;2.20;;;4.90;99.90;;;;;;4989407;28;20208;-75
2022/01/20 12:21:18;;;;;;;9.43;2.20;;;5.30;99.90;;;;;;4998055;28;20297;-75
2022/01/20 12:23:49;;;;;;;10.23;2.77;;;5.70;99.90;;;;;;4971311;28;20232;-75
2022/01/20 12:26:17;;;;;;;8.10;2.20;;;5.90;99.90;;;;;;4985568;28;20228;-76
2022/01/20 12:28:44;;;;;;;6.10;1.77;;;5.60;99.90;;;;;;4990735;28;20198;-75
2022/01/20 12:31:13;;;;;;;8.97;2.47;;;5.40;99.90;;;;;;5007065;28;20204;-75
2022/01/20 12:33:45;;;;;;;10.97;2.37;;;5.40;99.90;;;;;;5007322;28;20201;-75
2022/01/20 12:36:14;;;;;;;12.50;2.30;;;5.40;99.90;;;;;;5006599;28;20549;-76
2022/01/20 12:38:42;;;;;;;10.63;2.23;;;5.40;99.90;;;;;;5007056;28;20200;-75
2022/01/20 12:41:13;;;;;;;7.93;2.93;;;5.40;99.90;;;;;;4990382;28;20202;-75
2022/01/20 12:43:43;;;;;;;5.87;2.17;;;5.30;99.90;;;;;;4990292;28;20219;-75
2022/01/20 12:46:12;;;;;;;8.77;2.30;;;5.40;99.90;;;;;;5006689;28;20199;-75
2022/01/20 12:48:56;;;;;;;9.20;2.57;;;5.30;99.90;;;;;;5006316;28;20197;-75
2022/01/20 12:51:32;;;;;;;6.57;2.47;;;5.20;99.90;;;;;;4990010;28;20197;-75
2022/01/20 12:54:06;;;;;;;10.20;2.30;;;5.30;99.90;;;;;;4983784;28;20193;-75
2022/01/20 12:56:56;;;;;;;9.77;2.10;;;5.20;99.90;;;;;;5000235;28;20687;-75
2022/01/20 12:59:26;;;;;;;8.30;2.77;;;5.30;99.90;;;;;;5010222;28;20213;-75
2022/01/20 13:01:59;;;;;;;10.40;2.33;;;5.30;99.90;;;;;;5010110;28;20204;-75
2022/01/20 13:04:43;;;;;;;9.30;2.33;;;5.40;99.80;;;;;;4994943;28;20224;-75
2022/01/20 13:07:15;;;;;;;8.97;2.50;;;5.40;99.90;;;;;;5011697;28;20225;-74
2022/01/20 13:09:47;;;;;;;8.63;1.97;;;5.90;99.90;;;;;;4995041;28;20205;-77
2022/01/20 13:12:37;;;;;;;8.13;2.17;;;5.90;99.60;;;;;;5005834;28;20209;-76
2022/01/20 13:15:18;;;;;;;4.03;1.60;;;5.80;99.90;;;;;;5002197;28;20204;-77
2022/01/20 13:18:04;;;;;;;5.37;2.20;;;5.80;99.90;;;;;;4991313;28;20684;-76
2022/01/20 13:20:40;;;;;;;11.07;2.80;;;6.90;98.50;;;;;;4975152;28;20194;-76
2022/01/20 13:26:03;;;;;;;6.60;2.27;;;6.00;99.90;;;;;;4993074;28;20196;-75
2022/01/20 13:28:32;;;;;;;8.83;2.47;;;6.00;99.90;;;;;;4993496;28;20198;-75
2022/01/20 13:31:13;;;;;;;8.67;2.50;;;6.30;99.90;;;;;;4975330;28;20217;-75
2022/01/20 13:33:41;;;;;;;6.10;1.93;;;6.60;99.90;;;;;;5007250;28;20229;-75
2022/01/20 13:36:09;;;;;;;8.07;2.27;;;6.20;99.90;;;;;;4995421;28;20188;-75
2022/01/20 13:38:41;;;;;;;7.67;1.87;;;6.30;99.90;;;;;;5012483;28;20559;-75
2022/01/20 13:41:10;;;;;;;8.63;1.83;;;6.20;99.90;;;;;;5010871;28;20666;-73
2022/01/20 13:46:33;;;;;;;7.03;2.33;;;5.80;99.90;;;;;;4994869;28;20225;-73
2022/01/20 13:49:10;;;;;;;8.00;2.40;;;5.50;99.90;;;;;;4993133;28;20207;-73
2022/01/20 13:51:38;;;;;;;4.57;1.57;;;5.00;99.90;;;;;;5010441;28;20202;-73
2022/01/20 13:54:06;;;;;;;5.03;1.50;;;4.30;99.90;;;;;;5010393;28;20189;-74
2022/01/20 13:56:33;;;;;;;4.37;1.23;;;4.00;99.90;;;;;;5009790;28;20239;-74
2022/01/20 14:02:50;;;;;;;5.27;1.83;;;3.90;99.90;;;;;;4998719;28;20176;-74
2022/01/20 14:05:18;;;;;;;10.57;2.00;;;3.70;99.90;;;;;;4994332;28;20188;-74
2022/01/20 14:08:19;;;;;;;6.30;1.67;;;3.80;99.90;;;;;;4992521;28;20695;-74
2022/01/20 14:10:46;;;;;;;7.03;1.87;;;4.00;99.90;;;;;;5004574;28;20210;-74
2022/01/20 14:13:32;;;;;;;6.73;1.80;;;4.10;99.90;;;;;;4992200;28;20202;-75
2022/01/20 14:16:05;;;;;;;5.80;2.10;;;4.20;99.90;;;;;;4988475;28;20191;-74
2022/01/20 14:18:41;;;;;;;5.07;1.57;;;4.20;99.90;;;;;;4992883;28;20199;-74
2022/01/20 14:21:09;;;;;;;5.17;1.83;;;4.10;99.90;;;;;;4992434;28;20198;-74
2022/01/20 14:23:36;;;;;;;6.77;2.30;;;4.00;99.90;;;;;;5001588;28;20222;-74
2022/01/20 14:26:05;;;;;;;7.27;2.33;;;4.10;99.90;;;;;;4996147;28;20210;-74
2022/01/20 14:28:32;;;;;;;5.73;2.70;;;4.10;99.90;;;;;;4995104;28;20219;-74
2022/01/20 14:31:00;;;;;;;2.83;1.50;;;4.10;99.90;;;;;;4991653;28;20192;-74
2022/01/20 14:33:27;;;;;;;6.37;1.43;;;4.20;99.90;;;;;;4992272;28;20212;-75
2022/01/20 14:35:56;;;;;;;6.70;1.40;;;4.40;99.90;;;;;;4991676;28;20535;-74